createdAt,value
2023-03-11T00:02:20.256Z,8.78
2023-03-11T00:04:47.019Z,9.06
2023-03-11T00:07:13.663Z,9.29
2023-03-11T00:09:40.266Z,8.39
2023-03-11T00:12:07.289Z,7.84
2023-03-11T00:14:33.970Z,8.23
2023-03-11T00:17:00.585Z,8.25
2023-03-11T00:19:27.209Z,8.47
2023-03-11T00:21:53.948Z,8.52
2023-03-11T00:24:20.613Z,8.61
2023-03-11T00:26:47.267Z,8.86
2023-03-11T00:29:13.882Z,8.78
2023-03-11T00:31:40.490Z,8.72
2023-03-11T00:34:07.218Z,8.66
2023-03-11T00:36:33.955Z,8.49
2023-03-11T00:39:02.062Z,8.31
2023-03-11T00:41:28.793Z,8.26
2023-03-11T00:43:55.454Z,8.12
2023-03-11T00:46:22.231Z,7.94
2023-03-11T00:48:50.997Z,8.03
2023-03-11T00:51:17.663Z,8.05
2023-03-11T00:53:44.417Z,8.21
2023-03-11T00:56:12.782Z,8.36
2023-03-11T00:58:39.678Z,8.26
2023-03-11T01:01:10.477Z,8.32
2023-03-11T01:03:37.458Z,8.29
2023-03-11T01:06:04.521Z,8.37
2023-03-11T01:08:31.692Z,8.50
2023-03-11T01:10:58.775Z,8.33
2023-03-11T01:13:26.049Z,8.28
2023-03-11T01:15:52.756Z,8.43
2023-03-11T01:18:20.481Z,8.45
2023-03-11T01:20:47.211Z,8.50
2023-03-11T01:23:14.261Z,8.45
2023-03-11T01:25:40.883Z,8.51
2023-03-11T01:28:08.423Z,8.51
2023-03-11T01:30:36.360Z,8.55
2023-03-11T01:33:03.429Z,8.35
2023-03-11T01:35:32.461Z,8.30
2023-03-11T01:37:59.199Z,8.51
2023-03-11T01:40:28.633Z,8.81
2023-03-11T01:42:55.326Z,9.07
2023-03-11T01:45:39.909Z,9.27
2023-03-11T01:48:06.540Z,9.16
2023-03-11T01:50:36.907Z,9.28
2023-03-11T01:53:03.744Z,9.47
2023-03-11T01:55:30.464Z,9.58
2023-03-11T01:57:57.061Z,9.14
2023-03-11T02:00:23.752Z,8.82
2023-03-11T02:02:54.495Z,8.67
2023-03-11T02:05:24.479Z,8.63
2023-03-11T02:07:51.278Z,8.72
2023-03-11T02:10:18.200Z,8.87
2023-03-11T02:12:45.449Z,8.70
2023-03-11T02:15:12.194Z,8.63
2023-03-11T02:17:39.176Z,8.44
2023-03-11T02:20:12.653Z,8.27
2023-03-11T02:22:42.523Z,8.56
2023-03-11T02:25:34.904Z,8.17
2023-03-11T02:28:01.834Z,7.75
2023-03-11T02:30:28.451Z,7.77
2023-03-11T02:32:55.143Z,7.77
2023-03-11T02:35:21.767Z,7.93
2023-03-11T02:37:49.610Z,7.81
2023-03-11T02:40:22.476Z,7.73
2023-03-11T02:42:56.421Z,7.62
2023-03-11T02:45:25.091Z,7.65
2023-03-11T02:47:52.993Z,7.64
2023-03-11T02:50:19.699Z,7.64
2023-03-11T02:52:48.112Z,7.68
2023-03-11T02:55:16.152Z,7.73
2023-03-11T02:57:43.086Z,7.76
2023-03-11T03:00:16.719Z,7.75
2023-03-11T03:02:43.831Z,7.68
2023-03-11T03:05:10.815Z,7.69
2023-03-11T03:07:37.493Z,7.65
2023-03-11T03:10:05.531Z,7.74
2023-03-11T03:12:32.239Z,7.70
2023-03-11T03:14:58.985Z,7.68
2023-03-11T03:17:25.624Z,7.67
2023-03-11T03:19:52.382Z,7.72
2023-03-11T03:22:19.139Z,7.72
2023-03-11T03:24:45.890Z,7.72
2023-03-11T03:27:12.580Z,7.70
2023-03-11T03:29:39.152Z,7.63
2023-03-11T03:32:06.288Z,7.61
2023-03-11T03:34:33.162Z,7.55
2023-03-11T03:36:59.860Z,7.54
2023-03-11T03:39:28.208Z,7.59
2023-03-11T03:41:56.043Z,7.48
2023-03-11T03:44:22.753Z,7.59
2023-03-11T03:46:49.391Z,7.53
2023-03-11T03:49:16.217Z,7.45
2023-03-11T03:51:42.835Z,7.35
2023-03-11T03:54:09.458Z,7.40
2023-03-11T03:56:36.147Z,7.50
2023-03-11T03:59:02.873Z,7.48
2023-03-11T04:01:29.543Z,7.42
2023-03-11T04:03:56.229Z,7.46
2023-03-11T04:06:24.488Z,7.60
2023-03-11T04:08:51.893Z,7.72
2023-03-11T04:11:18.602Z,7.82
2023-03-11T04:13:45.400Z,7.68
2023-03-11T04:16:22.394Z,7.69
2023-03-11T04:18:49.134Z,7.76
2023-03-11T04:21:15.797Z,7.56
2023-03-11T04:23:42.408Z,7.54
2023-03-11T04:26:09.164Z,7.40
2023-03-11T04:28:35.798Z,7.54
2023-03-11T04:31:02.613Z,7.64
2023-03-11T04:33:29.328Z,7.59
2023-03-11T04:35:56.149Z,7.72
2023-03-11T04:38:22.942Z,7.58
2023-03-11T04:40:49.725Z,7.61
2023-03-11T04:43:16.357Z,7.69
2023-03-11T04:45:43.014Z,7.66
2023-03-11T04:48:09.722Z,7.71
2023-03-11T04:50:36.349Z,7.82
2023-03-11T04:53:03.049Z,7.82
2023-03-11T04:55:29.617Z,7.96
2023-03-11T04:57:56.221Z,8.12
2023-03-11T05:00:24.947Z,8.08
2023-03-11T05:02:51.863Z,8.05
2023-03-11T05:05:21.452Z,8.43
2023-03-11T05:07:48.348Z,8.16
2023-03-11T05:10:15.071Z,8.23
2023-03-11T05:12:41.736Z,8.22
2023-03-11T05:15:08.525Z,8.28
2023-03-11T05:17:35.086Z,8.38
2023-03-11T05:20:01.749Z,8.50
2023-03-11T05:22:28.354Z,8.23
2023-03-11T05:24:55.038Z,8.27
2023-03-11T05:27:21.671Z,8.48
2023-03-11T05:29:48.357Z,8.32
2023-03-11T05:32:15.077Z,8.12
2023-03-11T05:34:42.051Z,8.13
2023-03-11T05:37:08.825Z,8.03
2023-03-11T05:39:37.655Z,8.02
2023-03-11T05:42:07.574Z,8.20
2023-03-11T05:44:34.417Z,8.15
2023-03-11T05:47:01.176Z,8.12
2023-03-11T05:49:27.870Z,8.24
2023-03-11T05:51:56.754Z,8.26
2023-03-11T05:54:24.821Z,8.29
2023-03-11T05:56:51.424Z,8.22
2023-03-11T05:59:18.177Z,8.49
2023-03-11T06:01:44.937Z,8.45
2023-03-11T06:04:11.974Z,8.41
2023-03-11T06:06:40.193Z,8.31
2023-03-11T06:09:07.233Z,8.20
2023-03-11T06:11:33.798Z,8.29
2023-03-11T06:14:00.482Z,8.34
2023-03-11T06:16:27.187Z,8.27
2023-03-11T06:18:53.950Z,8.32
2023-03-11T06:21:21.915Z,8.00
2023-03-11T06:23:48.695Z,8.04
2023-03-11T06:26:17.065Z,8.07
2023-03-11T06:28:44.540Z,8.11
2023-03-11T06:31:22.476Z,8.02
2023-03-11T06:33:49.144Z,8.02
2023-03-11T06:36:16.837Z,8.12
2023-03-11T06:38:43.509Z,8.05
2023-03-11T06:41:10.401Z,8.07
2023-03-11T06:43:37.072Z,8.12
2023-03-11T06:46:12.102Z,8.09
2023-03-11T06:48:38.889Z,8.24
2023-03-11T06:51:05.778Z,8.16
2023-03-11T06:53:32.382Z,8.22
2023-03-11T06:56:02.732Z,8.19
2023-03-11T06:58:29.946Z,8.20
2023-03-11T07:01:01.185Z,8.14
2023-03-11T07:03:28.115Z,7.88
2023-03-11T07:05:54.769Z,7.89
2023-03-11T07:08:21.440Z,7.99
2023-03-11T07:10:59.271Z,7.97
2023-03-11T07:13:25.875Z,8.19
2023-03-11T07:16:01.353Z,8.27
2023-03-11T07:18:28.349Z,8.03
2023-03-11T07:20:55.088Z,8.15
2023-03-11T07:23:21.805Z,8.18
2023-03-11T07:25:48.478Z,7.96
2023-03-11T07:28:15.319Z,7.96
2023-03-11T07:30:44.515Z,8.04
2023-03-11T07:33:11.249Z,8.11
2023-03-11T07:35:37.908Z,7.98
2023-03-11T07:38:05.760Z,8.22
2023-03-11T07:40:32.468Z,8.48
2023-03-11T07:42:59.076Z,8.88
2023-03-11T07:45:25.683Z,9.28
2023-03-11T07:47:52.581Z,9.01
2023-03-11T07:50:22.193Z,9.28
2023-03-11T07:52:48.900Z,8.91
2023-03-11T07:55:15.530Z,9.07
2023-03-11T07:57:42.819Z,9.56
2023-03-11T08:00:10.455Z,9.79
2023-03-11T08:02:37.156Z,9.70
2023-03-11T08:05:03.937Z,9.71
2023-03-11T08:07:32.337Z,9.53
2023-03-11T08:09:59.106Z,9.65
2023-03-11T08:12:25.767Z,9.55
2023-03-11T08:14:52.437Z,9.32
2023-03-11T08:17:19.113Z,9.52
2023-03-11T08:19:45.819Z,9.65
2023-03-11T08:22:12.449Z,9.56
2023-03-11T08:24:39.144Z,9.70
2023-03-11T08:27:05.960Z,9.88
2023-03-11T08:29:32.524Z,10.13
2023-03-11T08:31:59.271Z,10.31
2023-03-11T08:34:27.646Z,10.37
2023-03-11T08:36:54.492Z,10.43
2023-03-11T08:39:21.106Z,10.71
2023-03-11T08:41:47.782Z,10.50
2023-03-11T08:44:14.490Z,10.01
2023-03-11T08:46:41.203Z,10.18
2023-03-11T08:49:07.922Z,10.66
2023-03-11T08:51:34.904Z,11.03
2023-03-11T08:54:01.871Z,11.02
2023-03-11T08:56:28.548Z,11.03
2023-03-11T08:58:55.305Z,10.95
2023-03-11T09:01:23.115Z,11.34
2023-03-11T09:03:49.742Z,10.93
2023-03-11T09:06:16.819Z,10.80
2023-03-11T09:08:44.446Z,10.97
2023-03-11T09:11:13.537Z,10.82
2023-03-11T09:13:41.185Z,11.03
2023-03-11T09:16:10.011Z,11.10
2023-03-11T09:18:36.723Z,10.83
2023-03-11T09:21:03.477Z,10.59
2023-03-11T09:23:30.203Z,11.15
2023-03-11T09:25:56.880Z,11.12
2023-03-11T09:28:23.717Z,11.34
2023-03-11T09:30:50.364Z,11.05
2023-03-11T09:33:17.090Z,10.70
2023-03-11T09:35:43.782Z,10.80
2023-03-11T09:38:10.457Z,10.81
2023-03-11T09:40:51.713Z,10.95
2023-03-11T09:43:42.476Z,10.49
2023-03-11T09:46:51.252Z,10.40
2023-03-11T09:49:51.783Z,10.05
2023-03-11T09:52:28.603Z,10.06
2023-03-11T09:54:55.309Z,10.06
2023-03-11T09:57:27.016Z,10.79
2023-03-11T09:59:53.744Z,10.61
2023-03-11T10:02:22.541Z,10.99
2023-03-11T10:04:55.614Z,11.00
2023-03-11T10:07:25.976Z,11.21
2023-03-11T10:09:59.012Z,11.82
2023-03-11T10:12:38.669Z,11.87
2023-03-11T10:15:23.578Z,11.91
2023-03-11T10:18:08.723Z,11.70
2023-03-11T10:21:06.186Z,11.75
2023-03-11T10:23:57.838Z,12.17
2023-03-11T10:26:34.125Z,11.74
2023-03-11T10:29:18.864Z,12.44
2023-03-11T10:31:54.947Z,12.26
2023-03-11T10:34:48.055Z,12.21
2023-03-11T10:37:18.029Z,12.76
2023-03-11T10:39:45.658Z,13.08
2023-03-11T10:42:14.084Z,12.83
2023-03-11T10:44:41.921Z,12.84
2023-03-11T10:47:20.245Z,13.02
2023-03-11T10:49:46.999Z,12.05
2023-03-11T10:52:13.695Z,11.74
2023-03-11T10:54:46.443Z,11.51
2023-03-11T10:57:25.791Z,11.04
2023-03-11T10:59:59.812Z,10.67
2023-03-11T11:02:42.625Z,10.59
2023-03-11T11:05:20.217Z,10.69
2023-03-11T11:08:07.684Z,10.67
2023-03-11T11:10:35.756Z,10.80
2023-03-11T11:13:12.197Z,10.80
2023-03-11T11:15:58.071Z,10.38
2023-03-11T11:18:43.875Z,10.46
2023-03-11T11:21:27.712Z,10.87
2023-03-11T11:24:15.796Z,10.95
2023-03-11T11:26:42.624Z,10.76
2023-03-11T11:29:15.017Z,10.48
2023-03-11T11:31:43.481Z,10.78
2023-03-11T11:34:30.076Z,11.33
2023-03-11T11:36:57.414Z,11.49
2023-03-11T11:39:24.071Z,11.66
2023-03-11T11:41:50.765Z,11.46
2023-03-11T11:44:19.653Z,11.34
2023-03-11T11:47:13.065Z,11.36
2023-03-11T11:49:39.633Z,11.30
2023-03-11T11:52:13.029Z,11.45
2023-03-11T11:54:48.050Z,11.49
2023-03-11T11:57:18.897Z,11.56
2023-03-11T11:59:45.483Z,11.56
2023-03-11T12:02:30.839Z,11.23
2023-03-11T12:05:16.613Z,11.42
2023-03-11T12:08:02.787Z,11.63
2023-03-11T12:10:34.846Z,11.36
2023-03-11T12:13:08.492Z,10.90
2023-03-11T12:15:40.997Z,11.10
2023-03-11T12:18:13.994Z,11.46
2023-03-11T12:20:49.855Z,11.30
2023-03-11T12:23:20.503Z,11.43
2023-03-11T12:25:59.629Z,11.14
2023-03-11T12:28:45.537Z,10.37
2023-03-11T12:31:12.434Z,9.74
2023-03-11T12:33:51.176Z,9.85
2023-03-11T12:36:24.875Z,9.73
2023-03-11T12:38:51.603Z,9.40
2023-03-11T12:41:41.255Z,9.71
2023-03-11T12:44:28.814Z,9.73
2023-03-11T12:46:58.698Z,9.80
2023-03-11T12:49:27.236Z,9.76
2023-03-11T12:52:05.370Z,10.12
2023-03-11T12:54:31.889Z,10.50
2023-03-11T12:57:00.190Z,10.80
2023-03-11T13:00:07.816Z,10.94
2023-03-11T13:02:37.089Z,11.31
2023-03-11T13:05:21.802Z,11.58
2023-03-11T13:07:57.169Z,11.28
2023-03-11T13:10:42.502Z,11.53
2023-03-11T13:13:35.248Z,11.87
2023-03-11T13:16:25.189Z,11.99
2023-03-11T13:18:51.890Z,11.80
2023-03-11T13:21:27.774Z,11.59
2023-03-11T13:24:36.472Z,11.71
2023-03-11T13:27:05.552Z,11.53
2023-03-11T13:30:00.106Z,11.81
2023-03-11T13:32:57.590Z,11.42
2023-03-11T13:35:42.524Z,11.31
2023-03-11T13:38:24.254Z,11.13
2023-03-11T13:40:52.591Z,11.03
2023-03-11T13:43:23.574Z,11.14
2023-03-11T13:46:38.672Z,11.19
2023-03-11T13:49:08.294Z,11.33
2023-03-11T13:51:45.241Z,11.49
2023-03-11T13:54:20.089Z,11.30
2023-03-11T13:57:00.097Z,11.25
2023-03-11T13:59:29.259Z,11.28
2023-03-11T14:02:08.049Z,11.55
2023-03-11T14:04:36.440Z,11.44
2023-03-11T14:07:22.089Z,11.36
2023-03-11T14:09:48.713Z,11.44
2023-03-11T14:12:17.373Z,11.53
2023-03-11T14:14:48.987Z,11.52
2023-03-11T14:17:16.993Z,11.38
2023-03-11T14:19:44.725Z,11.26
2023-03-11T14:22:11.517Z,11.48
2023-03-11T14:24:39.083Z,11.20
2023-03-11T14:27:29.388Z,11.01
2023-03-11T14:29:56.386Z,10.76
2023-03-11T14:32:31.021Z,10.33
2023-03-11T14:34:57.879Z,10.13
2023-03-11T14:37:33.064Z,10.09
2023-03-11T14:39:59.905Z,9.89
2023-03-11T14:42:35.805Z,9.54
2023-03-11T14:45:02.386Z,8.87
2023-03-11T14:47:39.301Z,8.44
2023-03-11T14:50:06.990Z,8.45
2023-03-11T14:52:40.826Z,8.52
2023-03-11T14:55:13.165Z,8.71
2023-03-11T14:57:54.684Z,9.00
2023-03-11T15:00:24.015Z,8.99
2023-03-11T15:03:13.008Z,8.77
2023-03-11T15:05:52.549Z,8.49
2023-03-11T15:08:20.001Z,8.61
2023-03-11T15:11:05.498Z,8.64
2023-03-11T15:13:32.259Z,8.33
2023-03-11T15:16:00.072Z,8.27
2023-03-11T15:18:32.402Z,8.54
2023-03-11T15:21:14.533Z,8.40
2023-03-11T15:23:49.114Z,8.27
2023-03-11T15:26:29.130Z,8.23
2023-03-11T15:29:15.665Z,7.89
2023-03-11T15:31:44.888Z,8.15
2023-03-11T15:34:25.176Z,8.25
2023-03-11T15:36:52.922Z,8.39
2023-03-11T15:39:22.389Z,8.10
2023-03-11T15:42:13.730Z,8.13
2023-03-11T15:44:56.768Z,8.23
2023-03-11T15:47:23.430Z,8.37
2023-03-11T15:49:50.410Z,8.55
2023-03-11T15:52:17.270Z,8.26
2023-03-11T15:54:54.505Z,8.42
2023-03-11T15:57:26.589Z,8.71
2023-03-11T15:59:54.194Z,9.05
2023-03-11T16:02:25.939Z,9.15
2023-03-11T16:04:52.975Z,9.20
2023-03-11T16:07:32.848Z,9.29
2023-03-11T16:10:05.803Z,9.39
2023-03-11T16:12:32.671Z,9.27
2023-03-11T16:14:59.295Z,9.06
2023-03-11T16:17:26.595Z,8.45
2023-03-11T16:19:54.187Z,7.94
2023-03-11T16:22:24.145Z,8.15
2023-03-11T16:24:51.296Z,8.19
2023-03-11T16:27:18.338Z,8.11
2023-03-11T16:29:45.977Z,7.62
2023-03-11T16:32:12.920Z,7.43
2023-03-11T16:34:40.026Z,7.57
2023-03-11T16:37:07.047Z,7.66
2023-03-11T16:39:34.274Z,7.56
2023-03-11T16:42:00.971Z,7.71
2023-03-11T16:44:27.622Z,7.51
2023-03-11T16:46:54.379Z,7.91
2023-03-11T16:49:21.153Z,7.91
2023-03-11T16:51:47.873Z,7.96
2023-03-11T16:54:14.535Z,7.81
2023-03-11T16:56:41.946Z,7.65
2023-03-11T16:59:08.849Z,7.83
2023-03-11T17:01:38.672Z,7.84
2023-03-11T17:04:06.655Z,7.79
2023-03-11T17:06:35.572Z,7.72
2023-03-11T17:09:02.242Z,7.74
2023-03-11T17:11:30.676Z,7.86
2023-03-11T17:14:13.665Z,7.76
2023-03-11T17:16:42.617Z,7.95
2023-03-11T17:19:09.270Z,8.18
2023-03-11T17:21:35.862Z,7.76
2023-03-11T17:24:02.524Z,7.75
2023-03-11T17:26:31.090Z,7.73
2023-03-11T17:28:57.837Z,7.25
2023-03-11T17:31:24.602Z,7.07
2023-03-11T17:33:51.402Z,7.20
2023-03-11T17:36:18.182Z,7.07
2023-03-11T17:38:46.041Z,7.19
2023-03-11T17:41:16.744Z,7.34
2023-03-11T17:43:43.827Z,7.55
2023-03-11T17:46:14.149Z,7.72
2023-03-11T17:48:41.757Z,7.80
2023-03-11T17:51:10.279Z,8.00
2023-03-11T17:53:38.311Z,8.19
2023-03-11T17:56:05.624Z,8.33
2023-03-11T17:58:32.353Z,8.33
2023-03-11T18:00:59.309Z,8.39
2023-03-11T18:03:26.537Z,8.28
2023-03-11T18:05:57.501Z,8.07
2023-03-11T18:08:24.143Z,8.03
2023-03-11T18:10:55.336Z,7.93
2023-03-11T18:13:22.043Z,7.67
2023-03-11T18:16:16.525Z,7.85
2023-03-11T18:18:43.460Z,7.55
2023-03-11T18:21:15.110Z,7.24
2023-03-11T18:23:42.062Z,6.31
2023-03-11T18:26:09.392Z,6.06
2023-03-11T18:28:36.157Z,6.38
2023-03-11T18:31:10.119Z,6.54
2023-03-11T18:33:36.822Z,5.99
2023-03-11T18:36:23.042Z,5.79
2023-03-11T18:38:50.662Z,6.00
2023-03-11T18:41:17.460Z,6.14
2023-03-11T18:43:44.090Z,6.37
2023-03-11T18:46:13.349Z,6.24
2023-03-11T18:48:40.059Z,5.90
2023-03-11T18:51:07.249Z,6.18
2023-03-11T18:53:34.304Z,6.46
2023-03-11T18:56:02.691Z,6.21
2023-03-11T18:58:29.490Z,6.29
2023-03-11T19:00:56.380Z,6.36
2023-03-11T19:03:23.030Z,5.91
2023-03-11T19:05:50.875Z,5.43
2023-03-11T19:08:20.291Z,5.63
2023-03-11T19:10:47.398Z,5.08
2023-03-11T19:13:14.649Z,4.92
2023-03-11T19:15:43.516Z,5.01
2023-03-11T19:18:10.238Z,5.15
2023-03-11T19:20:36.925Z,4.66
2023-03-11T19:23:05.140Z,4.77
2023-03-11T19:25:32.724Z,4.55
2023-03-11T19:27:59.375Z,4.40
2023-03-11T19:30:26.132Z,4.41
2023-03-11T19:32:53.084Z,4.52
2023-03-11T19:35:21.115Z,4.81
2023-03-11T19:37:48.320Z,4.87
2023-03-11T19:40:15.473Z,4.36
2023-03-11T19:42:42.163Z,4.20
2023-03-11T19:45:09.098Z,3.96
2023-03-11T19:47:35.820Z,3.81
2023-03-11T19:50:02.525Z,3.86
2023-03-11T19:52:29.252Z,4.45
2023-03-11T19:54:56.022Z,4.36
2023-03-11T19:57:22.654Z,4.49
2023-03-11T19:59:49.303Z,4.92
2023-03-11T20:02:16.628Z,4.73
2023-03-11T20:04:43.593Z,4.52
2023-03-11T20:07:10.266Z,4.32
2023-03-11T20:09:36.875Z,4.58
2023-03-11T20:12:03.653Z,4.50
2023-03-11T20:14:30.417Z,4.31
2023-03-11T20:16:57.239Z,4.40
2023-03-11T20:19:23.882Z,4.45
2023-03-11T20:21:50.645Z,4.39
2023-03-11T20:24:17.430Z,4.49
2023-03-11T20:26:44.104Z,4.66
2023-03-11T20:29:10.860Z,4.35
2023-03-11T20:31:37.577Z,4.22
2023-03-11T20:34:04.311Z,3.87
2023-03-11T20:36:33.034Z,3.65
2023-03-11T20:38:59.819Z,3.39
2023-03-11T20:41:26.966Z,3.69
2023-03-11T20:43:55.192Z,3.58
2023-03-11T20:46:21.995Z,3.49
2023-03-11T20:48:48.792Z,3.48
2023-03-11T20:51:19.488Z,3.73
2023-03-11T20:53:47.122Z,3.49
2023-03-11T20:56:16.278Z,3.45
2023-03-11T20:58:43.405Z,3.18
2023-03-11T21:01:19.912Z,3.36
2023-03-11T21:03:47.129Z,3.28
2023-03-11T21:06:18.716Z,3.40
2023-03-11T21:08:45.684Z,3.51
2023-03-11T21:11:12.616Z,3.32
2023-03-11T21:13:39.413Z,3.39
2023-03-11T21:16:06.522Z,3.37
2023-03-11T21:18:33.301Z,3.38
2023-03-11T21:21:00.153Z,3.21
2023-03-11T21:23:26.877Z,2.94
2023-03-11T21:26:00.389Z,2.82
2023-03-11T21:28:27.207Z,3.12
2023-03-11T21:31:14.509Z,3.09
2023-03-11T21:33:41.518Z,2.60
2023-03-11T21:39:03.884Z,2.89
2023-03-11T21:41:30.729Z,2.69
2023-03-11T21:43:57.630Z,2.91
2023-03-11T21:46:27.040Z,2.93
2023-03-11T21:48:53.869Z,2.83
2023-03-11T21:51:20.799Z,2.92
2023-03-11T21:53:47.854Z,2.79
2023-03-11T21:56:14.831Z,2.89
2023-03-11T21:58:41.777Z,2.86
2023-03-11T22:01:08.934Z,2.78
2023-03-11T22:03:36.073Z,3.12
2023-03-11T22:06:07.673Z,2.85
2023-03-11T22:08:34.557Z,2.78
2023-03-11T22:11:01.675Z,2.84
2023-03-11T22:13:28.455Z,2.95
2023-03-11T22:15:55.163Z,2.60
2023-03-11T22:18:21.938Z,2.75
2023-03-11T22:20:48.855Z,2.58
2023-03-11T22:23:15.578Z,2.77
2023-03-11T22:25:42.724Z,2.38
2023-03-11T22:28:12.925Z,2.27
2023-03-11T22:30:39.622Z,2.19
2023-03-11T22:33:06.846Z,2.13
2023-03-11T22:35:33.604Z,1.95
2023-03-11T22:38:00.348Z,2.06
2023-03-11T22:40:27.384Z,1.88
2023-03-11T22:42:54.137Z,1.88
2023-03-11T22:45:22.391Z,2.00
2023-03-11T22:47:50.286Z,2.01
2023-03-11T22:50:17.882Z,2.05
2023-03-11T22:52:44.578Z,1.89
2023-03-11T22:55:11.289Z,1.91
2023-03-11T22:57:39.026Z,1.81
2023-03-11T23:00:17.304Z,1.94
2023-03-11T23:02:47.868Z,2.10
2023-03-11T23:05:14.855Z,2.12
2023-03-11T23:07:41.988Z,2.16
2023-03-11T23:10:09.607Z,2.13
2023-03-11T23:12:36.556Z,1.92
2023-03-11T23:15:07.851Z,1.95
2023-03-11T23:17:34.575Z,1.86
2023-03-11T23:20:01.455Z,2.23
2023-03-11T23:22:28.077Z,1.86
2023-03-11T23:24:54.805Z,1.80
2023-03-11T23:27:22.348Z,2.11
2023-03-11T23:29:50.562Z,1.90
2023-03-11T23:32:17.292Z,1.98
2023-03-11T23:34:45.451Z,1.74
2023-03-11T23:37:12.177Z,2.15
2023-03-11T23:39:38.763Z,2.31
2023-03-11T23:42:22.419Z,1.70
2023-03-11T23:44:51.494Z,1.65
2023-03-11T23:47:18.240Z,1.44
2023-03-11T23:49:44.850Z,1.58
2023-03-11T23:52:11.486Z,1.66
2023-03-11T23:54:38.165Z,1.41
2023-03-11T23:57:04.818Z,1.24
2023-03-11T23:59:31.400Z,1.31
